Time;durP1;ratioP1;P1;durP2;ratioP2;P2;SDS_P1;SDS_P2;PMS_P1;PMS_P2;Temp;Humidity;BMP_temperature;BMP_pressure;BME280_temperature;BME280_humidity;BME280_pressure;Samples;Min_cycle;Max_cycle;Signal;HPM_P1;HPM_P2
2023/05/20 00:01:04;;;;;;;;;;;;;;;16.32;87.72;99810.88;5054425;28;867;-63
2023/05/20 00:03:31;;;;;;;;;;;;;;;16.31;87.88;99806.53;5054279;28;1949;-63
2023/05/20 00:05:58;;;;;;;;;;;;;;;16.28;88.12;99811.00;5054304;28;852;-63
2023/05/20 00:08:25;;;;;;;;;;;;;;;16.13;89.44;99812.63;5054277;28;852;-62
2023/05/20 00:10:52;;;;;;;;;;;;;;;16.04;90.45;99821.59;5032834;28;2229;-63
2023/05/20 00:13:19;;;;;;;;;;;;;;;16.02;90.75;99812.91;5032979;28;1260;-63
2023/05/20 00:15:45;;;;;;;;;;;;;;;16.03;90.58;99813.69;5034251;28;879;-63
2023/05/20 00:18:12;;;;;;;;;;;;;;;16.02;91.14;99814.91;5034236;28;831;-63
2023/05/20 00:20:39;;;;;;;;;;;;;;;15.95;91.45;99810.31;5034219;28;911;-63
2023/05/20 00:23:06;;;;;;;;;;;;;;;15.98;91.21;99792.72;5034115;28;798;-63
2023/05/20 00:25:33;;;;;;;;;;;;;;;16.18;89.59;99789.00;5033862;28;1979;-63
2023/05/20 00:28:00;;;;;;;;;;;;;;;16.31;88.31;99784.22;5034203;28;856;-63
2023/05/20 00:30:27;;;;;;;;;;;;;;;16.26;88.95;99782.00;5033972;28;840;-63
2023/05/20 00:32:55;;;;;;;;;;;;;;;16.13;89.82;99788.31;5034274;28;812;-64
2023/05/20 00:35:22;;;;;;;;;;;;;;;16.05;90.89;99786.94;5033891;28;831;-63
2023/05/20 00:37:49;;;;;;;;;;;;;;;16.04;91.26;99788.16;5033885;28;907;-62
2023/05/20 00:40:15;;;;;;;;;;;;;;;15.98;91.68;99795.50;5033803;28;863;-62
2023/05/20 00:42:42;;;;;;;;;;;;;;;16.04;91.59;99798.53;5033735;28;923;-62
2023/05/20 00:45:10;;;;;;;;;;;;;;;16.10;91.17;99785.63;5032337;28;1938;-62
2023/05/20 00:47:37;;;;;;;;;;;;;;;16.02;91.91;99789.81;5033653;28;922;-64
2023/05/20 00:50:05;;;;;;;;;;;;;;;16.02;91.91;99790.59;5033648;28;836;-62
2023/05/20 00:52:32;;;;;;;;;;;;;;;16.17;90.79;99785.41;5033492;28;888;-63
2023/05/20 00:54:59;;;;;;;;;;;;;;;16.28;90.21;99785.91;5033438;28;977;-62
2023/05/20 00:57:26;;;;;;;;;;;;;;;16.21;90.83;99790.91;5033482;28;840;-62
2023/05/20 00:59:53;;;;;;;;;;;;;;;16.05;92.37;99784.16;5033506;28;835;-64
2023/05/20 01:02:20;;;;;;;;;;;;;;;15.79;94.87;99777.69;5033288;28;840;-63
2023/05/20 01:04:47;;;;;;;;;;;;;;;15.70;96.55;99769.94;5033322;28;1885;-63
2023/05/20 01:07:15;;;;;;;;;;;;;;;15.56;98.68;99770.31;5032289;28;819;-62
2023/05/20 01:09:42;;;;;;;;;;;;;;;15.63;98.91;99766.56;5033360;28;1001;-62
2023/05/20 01:12:14;;;;;;;;;;;;;;;15.76;98.54;99761.06;5049348;28;1261;-62
2023/05/20 01:14:44;;;;;;;;;;;;;;;15.78;98.41;99759.41;5035270;28;1328;-63
2023/05/20 01:17:11;;;;;;;;;;;;;;;15.80;98.49;99764.53;5053291;28;819;-62
2023/05/20 01:19:42;;;;;;;;;;;;;;;15.80;98.83;99765.31;5053017;28;843;-62
2023/05/20 01:22:13;;;;;;;;;;;;;;;15.86;98.32;99768.38;5053084;28;832;-63
2023/05/20 01:24:41;;;;;;;;;;;;;;;15.88;98.19;99768.72;5052766;28;1975;-62
2023/05/20 01:27:09;;;;;;;;;;;;;;;15.81;98.98;99763.31;5052821;28;878;-62
2023/05/20 01:29:36;;;;;;;;;;;;;;;15.83;99.09;99760.88;5052732;28;876;-62
2023/05/20 01:32:14;;;;;;;;;;;;;;;15.88;99.03;99772.28;5034821;28;1356;-61
2023/05/20 01:34:42;;;;;;;;;;;;;;;15.90;98.43;99763.47;5052785;28;835;-61
2023/05/20 01:37:10;;;;;;;;;;;;;;;15.92;98.45;99764.59;5052651;28;819;-62
2023/05/20 01:39:40;;;;;;;;;;;;;;;15.87;98.91;99765.16;5034728;28;821;-62
2023/05/20 01:42:08;;;;;;;;;;;;;;;15.78;99.88;99772.56;5052483;28;891;-63
2023/05/20 01:44:35;;;;;;;;;;;;;;;15.54;100.00;99769.97;5052498;28;1947;-63
2023/05/20 01:47:02;;;;;;;;;;;;;;;15.43;100.00;99770.25;5052436;28;870;-63
2023/05/20 01:49:29;;;;;;;;;;;;;;;15.42;100.00;99760.31;5052351;28;887;-63
2023/05/20 01:51:56;;;;;;;;;;;;;;;15.64;100.00;99768.91;5052337;28;879;-62
2023/05/20 01:54:23;;;;;;;;;;;;;;;15.75;100.00;99773.44;5052233;28;832;-63
2023/05/20 01:56:50;;;;;;;;;;;;;;;15.71;100.00;99779.06;5052230;28;828;-62
2023/05/20 01:59:17;;;;;;;;;;;;;;;15.73;100.00;99796.16;5052194;28;866;-63
2023/05/20 02:01:44;;;;;;;;;;;;;;;15.65;100.00;99791.97;5052232;28;828;-62
2023/05/20 02:04:11;;;;;;;;;;;;;;;15.58;100.00;99784.59;5052124;28;1886;-62
2023/05/20 02:06:38;;;;;;;;;;;;;;;15.54;100.00;99791.47;5052133;28;839;-64
2023/05/20 02:09:05;;;;;;;;;;;;;;;15.45;100.00;99795.66;5052052;28;931;-63
2023/05/20 02:11:31;;;;;;;;;;;;;;;15.38;100.00;99800.59;5051717;28;1394;-62
2023/05/20 02:13:58;;;;;;;;;;;;;;;15.29;100.00;99806.78;5051922;28;880;-62
2023/05/20 02:16:26;;;;;;;;;;;;;;;15.13;100.00;99802.00;5051895;28;856;-62
2023/05/20 02:18:52;;;;;;;;;;;;;;;15.02;100.00;99796.69;5051822;28;816;-63
2023/05/20 02:21:19;;;;;;;;;;;;;;;15.04;100.00;99793.44;5051728;28;926;-63
2023/05/20 02:23:46;;;;;;;;;;;;;;;15.02;100.00;99796.69;5051948;28;1983;-63
2023/05/20 02:26:13;;;;;;;;;;;;;;;15.01;100.00;99799.91;5051638;28;900;-63
2023/05/20 02:28:45;;;;;;;;;;;;;;;14.99;100.00;99794.75;5051831;28;863;-64
2023/05/20 02:31:12;;;;;;;;;;;;;;;15.01;100.00;99794.31;5051616;28;922;-64
2023/05/20 02:33:39;;;;;;;;;;;;;;;15.02;100.00;99793.91;5051611;28;871;-64
2023/05/20 02:36:06;;;;;;;;;;;;;;;15.02;100.00;99793.91;5051585;28;804;-62
2023/05/20 02:38:32;;;;;;;;;;;;;;;15.09;100.00;99795.72;5051549;28;831;-64
2023/05/20 02:40:59;;;;;;;;;;;;;;;15.37;100.00;99796.25;5051517;28;853;-62
2023/05/20 02:43:26;;;;;;;;;;;;;;;15.56;100.00;99794.59;5051455;28;1894;-62
2023/05/20 02:45:53;;;;;;;;;;;;;;;15.65;100.00;99798.31;5051490;28;808;-63
2023/05/20 02:48:20;;;;;;;;;;;;;;;15.67;100.00;99800.69;5051427;28;816;-63
2023/05/20 02:50:47;;;;;;;;;;;;;;;15.58;100.00;99800.53;5051420;28;832;-65
2023/05/20 02:53:13;;;;;;;;;;;;;;;15.55;100.00;99806.94;5051235;28;872;-64
2023/05/20 02:55:46;;;;;;;;;;;;;;;15.50;100.00;99813.84;5051415;28;828;-63
2023/05/20 02:58:12;;;;;;;;;;;;;;;15.46;100.00;99810.34;5051967;28;808;-63
2023/05/20 03:00:39;;;;;;;;;;;;;;;15.38;100.00;99820.88;5051344;28;847;-63
2023/05/20 03:03:07;;;;;;;;;;;;;;;15.37;100.00;99830.47;5051319;28;827;-62
2023/05/20 03:05:36;;;;;;;;;;;;;;;15.39;100.00;99830.03;5051768;28;1945;-62
2023/05/20 03:08:09;;;;;;;;;;;;;;;15.38;100.00;99836.81;5051506;28;855;-63
2023/05/20 03:10:37;;;;;;;;;;;;;;;15.37;100.00;99840.81;5051134;28;1332;-63
2023/05/20 03:13:07;;;;;;;;;;;;;;;15.37;100.00;99849.94;5051421;28;792;-62
2023/05/20 03:15:34;;;;;;;;;;;;;;;15.37;100.00;99849.94;5051221;28;911;-63
2023/05/20 03:18:01;;;;;;;;;;;;;;;15.36;100.00;99844.81;5051249;28;827;-63
2023/05/20 03:20:29;;;;;;;;;;;;;;;15.35;100.00;99838.47;5051112;28;812;-63
2023/05/20 03:22:56;;;;;;;;;;;;;;;15.33;100.00;99843.69;5051062;28;843;-62
2023/05/20 03:25:23;;;;;;;;;;;;;;;15.36;100.00;99831.66;5051238;28;1975;-62
2023/05/20 03:27:51;;;;;;;;;;;;;;;15.41;100.00;99830.38;5051006;28;881;-63
2023/05/20 03:30:16;;;;;;;;;;;;;;;15.39;100.00;99825.25;5051902;28;895;-63
2023/05/20 03:32:43;;;;;;;;;;;;;;;15.39;100.00;99822.44;5055066;28;812;-63
2023/05/20 03:35:10;;;;;;;;;;;;;;;15.41;100.00;99828.38;5054899;28;858;-63
2023/05/20 03:37:38;;;;;;;;;;;;;;;15.43;100.00;99822.38;5055067;28;824;-62
2023/05/20 03:40:05;;;;;;;;;;;;;;;15.43;100.00;99839.88;5054891;28;907;-63
2023/05/20 03:42:33;;;;;;;;;;;;;;;15.48;100.00;99833.75;5054292;28;1428;-64
2023/05/20 03:45:00;;;;;;;;;;;;;;;15.56;100.00;99828.03;5054768;28;1886;-62
2023/05/20 03:47:27;;;;;;;;;;;;;;;15.66;100.00;99838.09;5054789;28;824;-63
2023/05/20 03:49:53;;;;;;;;;;;;;;;15.75;100.00;99843.88;5054628;28;910;-62
2023/05/20 03:52:21;;;;;;;;;;;;;;;15.78;100.00;99845.00;5054614;28;891;-63
2023/05/20 03:54:48;;;;;;;;;;;;;;;15.77;100.00;99844.22;5054793;28;871;-63
2023/05/20 03:57:15;;;;;;;;;;;;;;;15.71;100.00;99837.59;5036706;28;1562;-64
2023/05/20 03:59:42;;;;;;;;;;;;;;;15.60;100.00;99837.09;5054488;28;820;-64
2023/05/20 04:02:09;;;;;;;;;;;;;;;15.52;100.00;99831.66;5054467;28;871;-64
2023/05/20 04:04:37;;;;;;;;;;;;;;;15.54;100.00;99839.59;5054291;28;1882;-63
2023/05/20 04:07:03;;;;;;;;;;;;;;;15.60;100.00;99840.66;5054348;28;871;-63
2023/05/20 04:09:30;;;;;;;;;;;;;;;15.57;100.00;99844.28;5054424;28;999;-62
2023/05/20 04:11:56;;;;;;;;;;;;;;;15.49;100.00;99838.13;5053940;28;1230;-63
2023/05/20 04:14:24;;;;;;;;;;;;;;;15.50;100.00;99847.25;5054282;28;816;-63
2023/05/20 04:16:51;;;;;;;;;;;;;;;15.58;100.00;99845.09;5054334;28;804;-63
2023/05/20 04:19:22;;;;;;;;;;;;;;;15.66;100.00;99844.47;5054167;28;839;-63
2023/05/20 04:21:49;;;;;;;;;;;;;;;15.74;100.00;99853.44;5054022;28;843;-62
2023/05/20 04:24:16;;;;;;;;;;;;;;;15.81;100.00;99856.06;5053963;28;1914;-64
2023/05/20 04:26:43;;;;;;;;;;;;;;;15.86;100.00;99855.53;5054003;28;898;-64
2023/05/20 04:29:10;;;;;;;;;;;;;;;15.97;100.00;99857.28;5053844;28;867;-64
2023/05/20 04:31:38;;;;;;;;;;;;;;;16.00;100.00;99861.94;5054095;28;926;-64
2023/05/20 04:34:05;;;;;;;;;;;;;;;15.95;100.00;99866.06;5053835;28;899;-64
2023/05/20 04:36:33;;;;;;;;;;;;;;;15.87;100.00;99851.53;5054081;28;913;-63
2023/05/20 04:39:00;;;;;;;;;;;;;;;15.87;100.00;99850.75;5053746;28;820;-63
2023/05/20 04:41:27;;;;;;;;;;;;;;;15.85;100.00;99855.97;5053606;28;863;-63
2023/05/20 04:43:58;;;;;;;;;;;;;;;15.89;100.00;99859.44;5053523;28;1894;-64
2023/05/20 04:46:25;;;;;;;;;;;;;;;15.97;100.00;99866.41;5053667;28;819;-63
2023/05/20 04:48:52;;;;;;;;;;;;;;;16.16;100.00;99869.53;5053634;28;816;-64
2023/05/20 04:51:19;;;;;;;;;;;;;;;16.17;100.00;99873.84;5035482;28;2079;-65
2023/05/20 04:53:46;;;;;;;;;;;;;;;16.16;100.00;99872.31;5053513;28;851;-64
2023/05/20 04:56:14;;;;;;;;;;;;;;;16.19;100.00;99874.97;5053501;28;847;-64
2023/05/20 04:58:40;;;;;;;;;;;;;;;16.24;100.00;99870.91;5053465;28;863;-64
2023/05/20 05:01:07;;;;;;;;;;;;;;;16.23;100.00;99869.31;5053604;28;828;-65
2023/05/20 05:03:35;;;;;;;;;;;;;;;16.27;100.00;99881.16;5053333;28;1973;-63
2023/05/20 05:06:02;;;;;;;;;;;;;;;16.35;100.00;99876.19;5053250;28;895;-63
2023/05/20 05:08:28;;;;;;;;;;;;;;;16.43;100.00;99875.53;5053333;28;867;-63
2023/05/20 05:10:55;;;;;;;;;;;;;;;16.46;100.00;99882.25;5053044;28;1212;-63
2023/05/20 05:13:22;;;;;;;;;;;;;;;16.46;100.00;99871.84;5053186;28;884;-64
2023/05/20 05:15:57;;;;;;;;;;;;;;;16.47;100.00;99867.84;5053276;28;867;-63
2023/05/20 05:18:24;;;;;;;;;;;;;;;16.45;100.00;99866.72;5053117;28;808;-64
2023/05/20 05:21:00;;;;;;;;;;;;;;;16.54;100.00;99858.50;5052840;28;871;-64
2023/05/20 05:23:27;;;;;;;;;;;;;;;16.69;100.00;99859.66;5052877;28;1985;-63
2023/05/20 05:25:54;;;;;;;;;;;;;;;16.64;100.00;99851.84;5052809;28;820;-64
2023/05/20 05:28:21;;;;;;;;;;;;;;;16.61;100.00;99854.72;5052853;28;820;-63
2023/05/20 05:30:48;;;;;;;;;;;;;;;16.56;100.00;99856.06;5052734;28;895;-62
2023/05/20 05:33:15;;;;;;;;;;;;;;;16.67;100.00;99850.94;5052760;28;840;-63
2023/05/20 05:35:42;;;;;;;;;;;;;;;16.90;100.00;99849.91;5052657;28;805;-63
2023/05/20 05:38:09;;;;;;;;;;;;;;;16.99;100.00;99852.03;5034712;28;1271;-65
2023/05/20 05:40:36;;;;;;;;;;;;;;;16.99;100.00;99854.81;5052526;28;844;-64
2023/05/20 05:43:03;;;;;;;;;;;;;;;16.89;100.00;99864.28;5052532;28;824;-64
2023/05/20 05:45:30;;;;;;;;;;;;;;;16.84;100.00;99874.00;5052709;28;1882;-62
2023/05/20 05:47:57;;;;;;;;;;;;;;;16.65;100.00;99880.53;5052399;28;887;-63
2023/05/20 05:50:24;;;;;;;;;;;;;;;16.31;100.00;99882.63;5052455;28;839;-61
2023/05/20 05:52:50;;;;;;;;;;;;;;;15.91;100.00;99887.66;5051982;28;820;-62
2023/05/20 05:55:17;;;;;;;;;;;;;;;15.36;100.00;99892.94;5052253;28;824;-64
2023/05/20 05:57:44;;;;;;;;;;;;;;;14.79;100.00;99888.63;5052294;28;835;-62
2023/05/20 06:00:11;;;;;;;;;;;;;;;14.25;100.00;99892.41;5034313;28;1315;-61
2023/05/20 06:02:38;;;;;;;;;;;;;;;13.99;100.00;99894.84;5052130;28;817;-59
2023/05/20 06:05:05;;;;;;;;;;;;;;;13.79;100.00;99894.03;5051916;28;1882;-60
2023/05/20 06:07:32;;;;;;;;;;;;;;;13.73;100.00;99884.59;5052083;28;824;-58
2023/05/20 06:09:59;;;;;;;;;;;;;;;13.70;100.00;99883.47;5052221;28;1073;-60
2023/05/20 06:12:25;;;;;;;;;;;;;;;13.73;100.00;99876.28;5051812;28;1418;-59
2023/05/20 06:14:52;;;;;;;;;;;;;;;13.74;100.00;99867.53;5051931;28;906;-60
2023/05/20 06:17:18;;;;;;;;;;;;;;;13.76;100.00;99861.53;5051949;28;840;-61
2023/05/20 06:19:46;;;;;;;;;;;;;;;13.71;100.00;99857.25;5051708;28;922;-60
2023/05/20 06:22:12;;;;;;;;;;;;;;;13.89;100.00;99843.06;5051767;28;897;-61
2023/05/20 06:24:39;;;;;;;;;;;;;;;14.07;100.00;99843.50;5033799;28;1979;-60
2023/05/20 06:27:06;;;;;;;;;;;;;;;14.49;100.00;99843.13;5051616;28;852;-60
2023/05/20 06:29:33;;;;;;;;;;;;;;;15.09;100.00;99838.25;5051681;28;1051;-61
2023/05/20 06:32:00;;;;;;;;;;;;;;;15.64;100.00;99834.97;5051673;28;907;-61
2023/05/20 06:34:27;;;;;;;;;;;;;;;16.18;100.00;99830.81;5051585;28;848;-61
2023/05/20 06:36:54;;;;;;;;;;;;;;;16.47;100.00;99836.38;5051650;28;926;-61
2023/05/20 06:39:21;;;;;;;;;;;;;;;16.63;100.00;99833.50;5051531;28;892;-61
2023/05/20 06:41:48;;;;;;;;;;;;;;;16.78;100.00;99828.28;5051499;28;848;-61
2023/05/20 06:44:15;;;;;;;;;;;;;;;16.76;100.00;99816.78;5051459;28;1889;-61
2023/05/20 06:46:42;;;;;;;;;;;;;;;16.67;100.00;99816.69;5051449;28;855;-63
2023/05/20 06:49:08;;;;;;;;;;;;;;;17.60;100.00;99812.97;5033498;28;1473;-61
2023/05/20 06:51:35;;;;;;;;;;;;;;;19.06;100.00;99809.72;5051444;28;852;-63
2023/05/20 06:54:02;;;;;;;;;;;;;;;19.26;100.00;99792.50;5051636;28;868;-63
2023/05/20 06:56:31;;;;;;;;;;;;;;;18.54;100.00;99798.09;5051315;28;889;-64
2023/05/20 06:58:58;;;;;;;;;;;;;;;17.97;100.00;99808.56;5051355;28;808;-62
2023/05/20 07:01:25;;;;;;;;;;;;;;;17.90;100.00;99820.78;5051394;28;812;-61
2023/05/20 07:03:52;;;;;;;;;;;;;;;17.75;100.00;99817.66;5051193;28;1890;-62
2023/05/20 07:06:18;;;;;;;;;;;;;;;17.36;100.00;99804.97;5053931;28;823;-61
2023/05/20 07:08:45;;;;;;;;;;;;;;;17.28;100.00;99800.84;5055432;28;847;-62
2023/05/20 07:11:12;;;;;;;;;;;;;;;17.46;100.00;99794.69;5055348;28;1344;-60
2023/05/20 07:13:39;;;;;;;;;;;;;;;17.46;100.00;99789.09;5055369;28;820;-62
2023/05/20 07:16:05;;;;;;;;;;;;;;;17.55;100.00;99791.97;5055384;28;848;-63
2023/05/20 07:18:32;;;;;;;;;;;;;;;17.57;100.00;99791.53;5055234;28;823;-63
2023/05/20 07:21:00;;;;;;;;;;;;;;;17.55;100.00;99797.56;5055215;28;892;-62
2023/05/20 07:23:26;;;;;;;;;;;;;;;18.13;100.00;99811.16;5055145;28;1918;-63
2023/05/20 07:25:53;;;;;;;;;;;;;;;18.33;100.00;99812.88;5055157;28;922;-61
2023/05/20 07:28:21;;;;;;;;;;;;;;;18.51;100.00;99815.78;5055018;28;952;-61
2023/05/20 07:30:49;;;;;;;;;;;;;;;19.42;100.00;99816.69;5055323;28;918;-62
2023/05/20 07:33:16;;;;;;;;;;;;;;;21.34;100.00;99816.94;5054977;28;856;-63
2023/05/20 07:35:43;;;;;;;;;;;;;;;22.61;100.00;99812.84;5054943;28;828;-62
2023/05/20 07:38:11;;;;;;;;;;;;;;;23.30;100.00;99814.72;5054793;28;923;-62
2023/05/20 07:40:39;;;;;;;;;;;;;;;23.25;100.00;99819.03;5036929;28;766;-62
2023/05/20 07:43:07;;;;;;;;;;;;;;;22.69;100.00;99812.47;5054887;28;816;-62
2023/05/20 07:45:37;;;;;;;;;;;;;;;21.66;100.00;99808.97;5054653;28;1889;-64
2023/05/20 07:48:04;;;;;;;;;;;;;;;20.74;100.00;99821.41;5054710;28;890;-64
2023/05/20 07:50:33;;;;;;;;;;;;;;;20.55;100.00;99812.22;5054678;28;906;-62
2023/05/20 07:52:59;;;;;;;;;;;;;;;21.00;100.00;99818.19;5036752;28;1276;-63
2023/05/20 07:55:26;;;;;;;;;;;;;;;21.65;100.00;99810.22;5054650;28;811;-64
2023/05/20 07:57:53;;;;;;;;;;;;;;;22.14;100.00;99799.69;5054888;28;851;-64
2023/05/20 08:00:20;;;;;;;;;;;;;;;22.22;100.00;99809.31;5054506;28;963;-64
2023/05/20 08:02:47;;;;;;;;;;;;;;;22.55;100.00;99800.72;5036549;28;1545;-65
2023/05/20 08:05:14;;;;;;;;;;;;;;;23.06;100.00;99820.53;5054333;28;1906;-63
2023/05/20 08:07:40;;;;;;;;;;;;;;;22.87;100.00;99817.88;5054291;28;915;-63
2023/05/20 08:10:07;;;;;;;;;;;;;;;22.07;100.00;99814.91;5054624;28;899;-63
2023/05/20 08:12:34;;;;;;;;;;;;;;;21.22;100.00;99812.31;5054153;28;1311;-64
2023/05/20 08:15:01;;;;;;;;;;;;;;;20.63;100.00;99825.94;5054230;28;820;-63
2023/05/20 08:17:28;;;;;;;;;;;;;;;20.46;100.00;99822.66;5053630;28;950;-62
2023/05/20 08:19:55;;;;;;;;;;;;;;;20.63;100.00;99818.28;5036226;28;864;-63
2023/05/20 08:22:22;;;;;;;;;;;;;;;21.31;100.00;99829.13;5054427;28;859;-64
2023/05/20 08:24:50;;;;;;;;;;;;;;;21.61;100.00;99820.88;5054258;28;1973;-64
2023/05/20 08:27:17;;;;;;;;;;;;;;;21.72;99.23;99825.94;5054054;28;847;-64
2023/05/20 08:29:44;;;;;;;;;;;;;;;22.05;100.00;99836.34;5053933;28;808;-64
2023/05/20 08:32:11;;;;;;;;;;;;;;;22.39;99.97;99827.31;5053902;28;836;-64
2023/05/20 08:34:37;;;;;;;;;;;;;;;22.44;100.00;99828.69;5054108;28;1075;-63
2023/05/20 08:37:03;;;;;;;;;;;;;;;21.73;99.62;99817.03;5053901;28;835;-65
2023/05/20 08:39:30;;;;;;;;;;;;;;;21.32;100.00;99838.34;5053917;28;871;-65
2023/05/20 08:41:58;;;;;;;;;;;;;;;20.91;100.00;99847.09;5053847;28;867;-65
2023/05/20 08:44:26;;;;;;;;;;;;;;;20.83;100.00;99823.41;5053566;28;1902;-66
2023/05/20 08:46:55;;;;;;;;;;;;;;;20.88;100.00;99830.41;5053849;28;879;-65
2023/05/20 08:49:22;;;;;;;;;;;;;;;21.12;100.00;99830.47;5053673;28;839;-65
2023/05/20 08:51:50;;;;;;;;;;;;;;;21.12;100.00;99824.84;5035574;28;1200;-66
2023/05/20 08:54:19;;;;;;;;;;;;;;;20.66;100.00;99845.44;5053509;28;839;-64
2023/05/20 08:56:46;;;;;;;;;;;;;;;20.17;100.00;99833.16;5053447;28;890;-67
2023/05/20 08:59:14;;;;;;;;;;;;;;;19.55;100.00;99834.16;5053456;28;820;-64
2023/05/20 09:01:42;;;;;;;;;;;;;;;19.58;100.00;99843.66;5053577;28;923;-65
2023/05/20 09:04:09;;;;;;;;;;;;;;;19.87;100.00;99851.69;5053282;28;1943;-65
2023/05/20 09:06:48;;;;;;;;;;;;;;;19.85;100.00;99845.75;5053241;28;865;-63
2023/05/20 09:09:15;;;;;;;;;;;;;;;19.82;100.00;99843.88;5053356;28;1132;-64
2023/05/20 09:11:42;;;;;;;;;;;;;;;19.81;100.00;99841.56;5052946;28;1484;-63
2023/05/20 09:14:08;;;;;;;;;;;;;;;20.18;100.00;99848.75;5053320;28;881;-64
2023/05/20 09:16:35;;;;;;;;;;;;;;;20.03;100.00;99830.97;5053257;28;844;-64
2023/05/20 09:19:05;;;;;;;;;;;;;;;19.83;100.00;99836.25;5053337;28;832;-65
2023/05/20 09:21:31;;;;;;;;;;;;;;;19.74;100.00;99832.19;5052956;28;887;-66
2023/05/20 09:24:00;;;;;;;;;;;;;;;19.57;100.00;99837.25;5052945;28;1914;-64
2023/05/20 09:26:28;;;;;;;;;;;;;;;19.61;100.00;99833.53;5052891;28;805;-64
2023/05/20 09:28:59;;;;;;;;;;;;;;;19.75;100.00;99825.31;5052002;28;873;-64
2023/05/20 09:31:28;;;;;;;;;;;;;;;19.60;100.00;99832.75;5052858;28;863;-63
2023/05/20 09:33:55;;;;;;;;;;;;;;;19.71;100.00;99843.53;5052712;28;820;-65
2023/05/20 09:36:23;;;;;;;;;;;;;;;19.71;100.00;99843.53;5052789;28;922;-63
2023/05/20 09:38:52;;;;;;;;;;;;;;;19.65;100.00;99834.97;5052653;28;832;-64
2023/05/20 10:09:55;;;;;;;;;;;;;;;19.25;100.00;99866.59;5718204;22;1597;-55
2023/05/20 10:12:28;;;;;;;;;;;;;;;18.67;100.00;99867.97;5070866;28;863;-55
2023/05/20 10:15:04;;;;;;;;;;;;;;;18.22;100.00;99866.41;5072272;28;894;-56
2023/05/20 10:17:54;;;;;;;;;;;;;;;17.85;100.00;99865.28;5071981;28;839;-52
2023/05/20 10:20:21;;;;;;;;;;;;;;;17.65;100.00;99865.53;5071848;28;949;-55
2023/05/20 10:22:57;;;;;;;;;;;;;;;17.52;100.00;99873.94;5071934;28;910;-54
2023/05/20 10:25:25;;;;;;;;;;;;;;;17.23;100.00;99874.81;5070603;28;1909;-55
2023/05/20 10:28:15;;;;;;;;;;;;;;;17.03;100.00;99863.09;5071731;28;1101;-54
2023/05/20 10:30:48;;;;;;;;;;;;;;;16.92;100.00;99857.84;5072040;28;991;-55
2023/05/20 10:33:18;;;;;;;;;;;;;;;16.79;100.00;99857.78;5071952;28;820;-54
2023/05/20 10:35:51;;;;;;;;;;;;;;;16.72;100.00;99847.59;5071948;28;934;-54
2023/05/20 10:38:19;;;;;;;;;;;;;;;16.35;100.00;99849.06;5071618;28;961;-53
2023/05/20 10:40:46;;;;;;;;;;;;;;;16.20;100.00;99853.47;5072134;28;780;-54
2023/05/20 10:43:16;;;;;;;;;;;;;;;16.06;100.00;99844.25;5071993;28;799;-50
2023/05/20 10:45:53;;;;;;;;;;;;;;;16.05;100.00;99839.91;5070302;28;1987;-54
2023/05/20 10:48:23;;;;;;;;;;;;;;;16.24;100.00;99843.00;5071568;28;963;-54
2023/05/20 10:50:52;;;;;;;;;;;;;;;16.36;100.00;99850.63;5071506;28;835;-51
2023/05/20 10:53:21;;;;;;;;;;;;;;;16.32;100.00;99852.72;5071560;28;946;-52
2023/05/20 10:55:51;;;;;;;;;;;;;;;16.09;100.00;99856.56;5071448;28;882;-52
2023/05/20 10:58:20;;;;;;;;;;;;;;;15.90;100.00;99847.09;5071736;28;851;-55
2023/05/20 11:00:49;;;;;;;;;;;;;;;15.83;100.00;99848.06;5071457;28;874;-53
2023/05/20 11:03:17;;;;;;;;;;;;;;;15.99;100.00;99844.44;5071351;28;939;-54
2023/05/20 11:05:47;;;;;;;;;;;;;;;16.18;100.00;99836.41;5071290;28;1885;-52
2023/05/20 11:08:14;;;;;;;;;;;;;;;16.35;100.00;99829.53;5071156;28;1064;-54
2023/05/20 11:10:41;;;;;;;;;;;;;;;16.53;100.00;99829.81;5070961;28;1405;-53
2023/05/20 11:13:11;;;;;;;;;;;;;;;16.79;100.00;99818.72;5071248;28;973;-51
2023/05/20 11:15:38;;;;;;;;;;;;;;;17.02;100.00;99817.63;5071258;28;1042;-52
2023/05/20 11:18:04;;;;;;;;;;;;;;;17.33;100.00;99820.63;5071187;28;839;-49
2023/05/20 11:20:34;;;;;;;;;;;;;;;17.76;100.00;99810.03;5071253;28;831;-51
2023/05/20 11:23:02;;;;;;;;;;;;;;;18.46;100.00;99816.38;5071180;28;954;-54
2023/05/20 11:25:29;;;;;;;;;;;;;;;18.90;100.00;99807.91;5071013;28;1902;-51
2023/05/20 11:27:56;;;;;;;;;;;;;;;19.50;100.00;99806.75;5071113;28;867;-52
2023/05/20 11:30:22;;;;;;;;;;;;;;;20.33;100.00;99806.00;5071151;28;890;-52
2023/05/20 11:33:05;;;;;;;;;;;;;;;21.16;100.00;99797.34;5071119;28;981;-54
2023/05/20 11:35:32;;;;;;;;;;;;;;;21.71;100.00;99791.44;5071073;28;919;-50
2023/05/20 11:38:02;;;;;;;;;;;;;;;22.33;100.00;99780.63;5070903;28;879;-55
2023/05/20 11:40:30;;;;;;;;;;;;;;;22.39;100.00;99779.44;5071037;28;976;-57
2023/05/20 11:42:58;;;;;;;;;;;;;;;22.36;100.00;99776.81;5070982;28;1050;-57
2023/05/20 11:45:24;;;;;;;;;;;;;;;22.08;100.00;99771.41;5070873;28;1882;-56
2023/05/20 11:48:00;;;;;;;;;;;;;;;22.00;100.00;99761.81;5070829;28;898;-57
2023/05/20 11:50:27;;;;;;;;;;;;;;;22.12;100.00;99760.75;5071255;28;843;-56
2023/05/20 11:52:58;;;;;;;;;;;;;;;22.46;100.00;99761.38;5073070;28;811;-57
2023/05/20 11:55:25;;;;;;;;;;;;;;;22.73;100.00;99751.84;5074541;28;930;-57
2023/05/20 11:57:53;;;;;;;;;;;;;;;22.49;100.00;99759.63;5074605;28;1049;-58
2023/05/20 12:00:20;;;;;;;;;;;;;;;22.56;100.00;99750.81;5074577;28;863;-58
2023/05/20 12:02:47;;;;;;;;;;;;;;;22.62;100.00;99741.19;5073272;28;1631;-58
2023/05/20 12:05:15;;;;;;;;;;;;;;;23.14;100.00;99740.69;5074492;28;1950;-58
2023/05/20 12:07:41;;;;;;;;;;;;;;;23.79;100.00;99737.72;5074399;28;983;-58
2023/05/20 12:10:08;;;;;;;;;;;;;;;23.96;100.00;99734.28;5074261;28;1345;-58
2023/05/20 12:12:36;;;;;;;;;;;;;;;24.58;100.00;99729.22;5074292;28;990;-58
2023/05/20 12:15:06;;;;;;;;;;;;;;;26.25;100.00;99719.22;5074272;28;875;-58
2023/05/20 12:17:43;;;;;;;;;;;;;;;27.50;100.00;99716.97;5074180;28;930;-59
2023/05/20 12:20:12;;;;;;;;;;;;;;;28.76;100.00;99713.56;5074668;28;755;-58
2023/05/20 12:22:39;;;;;;;;;;;;;;;29.04;96.00;99707.59;5074407;28;859;-59
2023/05/20 12:25:06;;;;;;;;;;;;;;;28.53;91.79;99693.13;5074355;28;1909;-59
2023/05/20 12:27:33;;;;;;;;;;;;;;;28.56;88.56;99689.22;5072970;28;654;-59
2023/05/20 12:30:00;;;;;;;;;;;;;;;27.98;76.57;99689.41;5074238;28;838;-59
2023/05/20 12:32:27;;;;;;;;;;;;;;;28.26;76.32;99692.78;5074239;28;945;-59
2023/05/20 12:34:54;;;;;;;;;;;;;;;28.40;75.46;99670.19;5074159;28;880;-59
2023/05/20 12:37:21;;;;;;;;;;;;;;;28.92;76.18;99663.50;5073918;28;934;-58
2023/05/20 12:39:48;;;;;;;;;;;;;;;29.47;75.83;99664.16;5073845;28;857;-59
2023/05/20 12:42:15;;;;;;;;;;;;;;;29.76;73.18;99644.63;5073878;28;891;-59
2023/05/20 12:44:42;;;;;;;;;;;;;;;29.53;65.44;99649.84;5073948;28;1909;-58
2023/05/20 12:47:09;;;;;;;;;;;;;;;29.47;64.07;99652.78;5073937;28;890;-59
2023/05/20 12:49:37;;;;;;;;;;;;;;;29.45;64.84;99649.69;5072554;28;953;-59
2023/05/20 12:52:04;;;;;;;;;;;;;;;29.28;63.93;99649.16;5073868;28;862;-59
2023/05/20 12:54:31;;;;;;;;;;;;;;;29.38;64.54;99638.16;5073652;28;863;-59
2023/05/20 12:56:57;;;;;;;;;;;;;;;28.34;62.73;99638.25;5073557;28;970;-59
2023/05/20 12:59:25;;;;;;;;;;;;;;;27.77;67.46;99638.66;5073649;28;819;-57
2023/05/20 13:01:51;;;;;;;;;;;;;;;28.02;68.31;99627.41;5073344;28;911;-56
2023/05/20 13:04:18;;;;;;;;;;;;;;;27.58;69.43;99626.38;5072451;28;1881;-56
2023/05/20 13:06:45;;;;;;;;;;;;;;;26.87;68.69;99625.66;5073527;28;867;-56
2023/05/20 13:09:12;;;;;;;;;;;;;;;26.63;68.96;99623.41;5073711;28;986;-56
2023/05/20 13:11:39;;;;;;;;;;;;;;;26.83;67.39;99632.88;5073205;28;1398;-56
2023/05/20 13:14:07;;;;;;;;;;;;;;;27.44;67.50;99631.09;5073265;28;946;-56
2023/05/20 13:16:34;;;;;;;;;;;;;;;28.46;65.33;99631.91;5073086;28;913;-56
2023/05/20 13:19:01;;;;;;;;;;;;;;;28.75;64.07;99623.13;5073085;28;879;-56
2023/05/20 13:21:28;;;;;;;;;;;;;;;28.50;65.06;99628.78;5073070;28;843;-56
2023/05/20 13:23:55;;;;;;;;;;;;;;;26.98;65.04;99627.66;5073020;28;1973;-56
2023/05/20 13:26:22;;;;;;;;;;;;;;;25.81;68.80;99626.47;5072931;28;930;-56
2023/05/20 13:28:49;;;;;;;;;;;;;;;25.44;69.53;99621.78;5072896;28;848;-56